CheckWX is a tool to help pilots better visualize weather data.  It is not intended as a substitute for an official pre-flight weather briefing.

06:57:57 UTC

ZSSS TAF
Shanghai Hongqiao International Airport
Shanghai, China
TAF ZSSS 190314Z 1906/2006 03004MPS 6000 BKN020 TX27/1906Z TN22/1921Z BECMG 1910/1912 14004MPS

Jun-19@
06:00 UTC

Jun-19 @ 06:00 UTC

Jun-19@
10:00 UTC

Jun-19 @ 10:00 UTC

TAF ZSSS 190314Z 1906/2006 03004MPS 6000 BKN020 TX27/1906Z TN22/1921Z
Wind
  • 030° at 8 KTS
Cloud Levels
  • Broken at 2,000' AGL

Jun-19@
10:00 UTC

Jun-19 @ 10:00 UTC

Jun-20@
06:00 UTC

Jun-20 @ 06:00 UTC

BECMG 1910/1912 14004MPS

Becoming

Becoming Conditions expected by Wed, Jun 19, 2019 @ 12:00 UTC

Wind
  • 140° at 8 KTS
Cloud Levels
  • Broken at 2,000' AGL